Buckden, United Kingdom
Current Conditions -  °F | °C
As of 7:20 AM on Saturday 25 Oct 2014 (Local Time) from EGSC Reporting Station
Few Clouds Few Clouds  
Wind Chill: 37°   Ceiling: Unl
Heat Index: 41°   Visibility: 6mi
Dew Point: 41°   Wind: 6mph
Humidity: 100%   Direction: 200°SSW
Pressure: 30"   Gusts: NA
Location:  52.29°N, 0.25°W
Report Text: EGSC 250620Z 20005KT 170V240 9999 FEW030 05/05 Q1016
Loading
Personal Weather Stations






























Interactive Weather Map
Tropical Storm Tracking
New forecast layout! Learn more

10-Day Weather Forecast

Advertisements
Track Severe Weather on mobile